<?xml version='1.0' encoding='UTF-8'?><gpx version="1.1" creator="JPX - https://github.com/jenetics/jpx" xmlns="http://www.topografix.com/GPX/1/1"><trk><trkseg><trkpt lat="43.7452582" lon="10.9875061"><ele>32.14285714285714</ele><time>2026-04-11T14:05:41.01Z</time></trkpt><trkpt lat="43.7452447" lon="10.9876014"><ele>32.285714285714285</ele><time>2026-04-11T14:05:48.012Z</time></trkpt><trkpt lat="43.7452084" lon="10.9876861"><ele>32.42857142857143</ele><time>2026-04-11T14:05:54.012Z</time></trkpt><trkpt lat="43.7452048" lon="10.9877832"><ele>32.57142857142857</ele><time>2026-04-11T14:06:01.012Z</time></trkpt><trkpt lat="43.7452007" lon="10.9878719"><ele>32.714285714285715</ele><time>2026-04-11T14:06:07.935Z</time></trkpt><trkpt lat="43.7451993" lon="10.987964"><ele>32.857142857142854</ele><time>2026-04-11T14:06:13.012Z</time></trkpt><trkpt lat="43.7451975" lon="10.9880526"><ele>33.0</ele><time>2026-04-11T14:06:20.012Z</time></trkpt><trkpt lat="43.7452129" lon="10.9881429"><ele>33.0</ele><time>2026-04-11T14:06:27.928Z</time></trkpt><trkpt lat="43.7452037" lon="10.9882359"><ele>33.0</ele><time>2026-04-11T14:06:35.012Z</time></trkpt><trkpt lat="43.7452169" lon="10.9883345"><ele>33.0</ele><time>2026-04-11T14:06:42.012Z</time></trkpt><trkpt lat="43.7452295" lon="10.9884233"><ele>33.0</ele><time>2026-04-11T14:06:49.012Z</time></trkpt><trkpt lat="43.7452506" lon="10.9885156"><ele>33.0</ele><time>2026-04-11T14:07:01.012Z</time></trkpt><trkpt lat="43.7452695" lon="10.9886112"><ele>33.0</ele><time>2026-04-11T14:07:07.012Z</time></trkpt><trkpt lat="43.7452959" lon="10.9887007"><ele>33.0</ele><time>2026-04-11T14:07:14.012Z</time></trkpt><trkpt lat="43.7452746" lon="10.988791"><ele>32.714285714285715</ele><time>2026-04-11T14:07:25.035Z</time></trkpt><trkpt lat="43.7452143" lon="10.9888284"><ele>32.42857142857143</ele><time>2026-04-11T14:07:30.012Z</time></trkpt><trkpt lat="43.7451733" lon="10.9889131"><ele>32.142857142857146</ele><time>2026-04-11T14:07:38.012Z</time></trkpt><trkpt lat="43.745214" lon="10.9889954"><ele>31.857142857142858</ele><time>2026-04-11T14:07:48.463Z</time></trkpt><trkpt lat="43.7452131" lon="10.9890833"><ele>31.571428571428577</ele><time>2026-04-11T14:08:00.012Z</time></trkpt><trkpt lat="43.7452332" lon="10.9891731"><ele>31.28571428571429</ele><time>2026-04-11T14:08:07.012Z</time></trkpt><trkpt lat="43.7452698" lon="10.989246"><ele>31.0</ele><time>2026-04-11T14:08:14.012Z</time></trkpt><trkpt lat="43.7452851" lon="10.989338"><ele>31.0</ele><time>2026-04-11T14:08:23.022Z</time></trkpt><trkpt lat="43.7453095" lon="10.9894311"><ele>31.000000000000004</ele><time>2026-04-11T14:08:31.012Z</time></trkpt><trkpt lat="43.7453284" lon="10.9895176"><ele>31.0</ele><time>2026-04-11T14:08:39.013Z</time></trkpt><trkpt lat="43.7453477" lon="10.9896074"><ele>31.0</ele><time>2026-04-11T14:08:46.012Z</time></trkpt><trkpt lat="43.7453841" lon="10.9896936"><ele>31.000000000000004</ele><time>2026-04-11T14:08:53.012Z</time></trkpt><trkpt lat="43.7454191" lon="10.9897771"><ele>31.0</ele><time>2026-04-11T14:09:43.012Z</time></trkpt><trkpt lat="43.7454354" lon="10.989867"><ele>31.0</ele><time>2026-04-11T14:09:50.012Z</time></trkpt><trkpt lat="43.7454709" lon="10.9899452"><ele>31.42857142857143</ele><time>2026-04-11T14:09:58.012Z</time></trkpt><trkpt lat="43.7455115" lon="10.9900185"><ele>31.85714285714286</ele><time>2026-04-11T14:10:17.012Z</time></trkpt><trkpt lat="43.7455253" lon="10.9901079"><ele>32.285714285714285</ele><time>2026-04-11T14:10:23.869Z</time></trkpt><trkpt lat="43.7455406" lon="10.9902039"><ele>32.714285714285715</ele><time>2026-04-11T14:10:30.03Z</time></trkpt><trkpt lat="43.7455582" lon="10.9903024"><ele>33.14285714285714</ele><time>2026-04-11T14:10:38.124Z</time></trkpt><trkpt lat="43.7455647" lon="10.9903929"><ele>33.57142857142857</ele><time>2026-04-11T14:10:46.012Z</time></trkpt><trkpt lat="43.7455827" lon="10.990477"><ele>34.0</ele><time>2026-04-11T14:10:52.051Z</time></trkpt><trkpt lat="43.7456018" lon="10.9905614"><ele>33.99999999999999</ele><time>2026-04-11T14:10:59.012Z</time></trkpt><trkpt lat="43.7456189" lon="10.9906526"><ele>34.0</ele><time>2026-04-11T14:11:06.012Z</time></trkpt><trkpt lat="43.7456337" lon="10.9907486"><ele>34.0</ele><time>2026-04-11T14:11:14.012Z</time></trkpt><trkpt lat="43.7456415" lon="10.9908419"><ele>34.0</ele><time>2026-04-11T14:11:20.927Z</time></trkpt><trkpt lat="43.7456548" lon="10.9909366"><ele>34.0</ele><time>2026-04-11T14:11:28.045Z</time></trkpt><trkpt lat="43.7456699" lon="10.9910327"><ele>33.99999999999999</ele><time>2026-04-11T14:11:36.112Z</time></trkpt><trkpt lat="43.7456771" lon="10.9911289"><ele>34.0</ele><time>2026-04-11T14:11:45.16Z</time></trkpt><trkpt lat="43.7456952" lon="10.9912151"><ele>33.99999999999999</ele><time>2026-04-11T14:11:52.012Z</time></trkpt><trkpt lat="43.7457014" lon="10.9913122"><ele>34.0</ele><time>2026-04-11T14:11:59.121Z</time></trkpt><trkpt lat="43.7457045" lon="10.9914075"><ele>34.0</ele><time>2026-04-11T14:12:07.821Z</time></trkpt><trkpt lat="43.7456567" lon="10.9914915"><ele>34.0</ele><time>2026-04-11T14:12:16.012Z</time></trkpt><trkpt lat="43.7456064" lon="10.9915519"><ele>34.0</ele><time>2026-04-11T14:12:23.968Z</time></trkpt><trkpt lat="43.7455398" lon="10.9915407"><ele>33.99999999999999</ele><time>2026-04-11T14:12:30.045Z</time></trkpt><trkpt lat="43.7454845" lon="10.9914895"><ele>34.0</ele><time>2026-04-11T14:12:38.012Z</time></trkpt><trkpt lat="43.7454201" lon="10.9915094"><ele>33.99999999999999</ele><time>2026-04-11T14:12:48.04Z</time></trkpt><trkpt lat="43.7454062" lon="10.991606"><ele>34.0</ele><time>2026-04-11T14:12:58.012Z</time></trkpt><trkpt lat="43.7454466" lon="10.9916801"><ele>34.0</ele><time>2026-04-11T14:13:05.096Z</time></trkpt><trkpt lat="43.7455097" lon="10.9916899"><ele>34.0</ele><time>2026-04-11T14:13:12.012Z</time></trkpt><trkpt lat="43.7455838" lon="10.9916841"><ele>34.0</ele><time>2026-04-11T14:13:20.012Z</time></trkpt><trkpt lat="43.7456511" lon="10.9916936"><ele>33.99999999999999</ele><time>2026-04-11T14:13:26.115Z</time></trkpt><trkpt lat="43.745707" lon="10.9917487"><ele>34.0</ele><time>2026-04-11T14:13:45.012Z</time></trkpt><trkpt lat="43.7457223" lon="10.9918443"><ele>33.99999999999999</ele><time>2026-04-11T14:13:50.973Z</time></trkpt><trkpt lat="43.7457111" lon="10.9919394"><ele>34.0</ele><time>2026-04-11T14:13:57.553Z</time></trkpt><trkpt lat="43.7457099" lon="10.9920294"><ele>34.0</ele><time>2026-04-11T14:14:05.013Z</time></trkpt><trkpt lat="43.7456955" lon="10.9921263"><ele>34.0</ele><time>2026-04-11T14:14:13.048Z</time></trkpt><trkpt lat="43.7456883" lon="10.9922252"><ele>34.0</ele><time>2026-04-11T14:14:21.012Z</time></trkpt><trkpt lat="43.7456797" lon="10.9923116"><ele>33.99999999999999</ele><time>2026-04-11T14:14:29.012Z</time></trkpt><trkpt lat="43.7456644" lon="10.9924161"><ele>34.0</ele><time>2026-04-11T14:14:36.012Z</time></trkpt><trkpt lat="43.7456458" lon="10.9925054"><ele>33.857142857142854</ele><time>2026-04-11T14:14:44.002Z</time></trkpt><trkpt lat="43.7456346" lon="10.9926011"><ele>33.714285714285715</ele><time>2026-04-11T14:14:52.105Z</time></trkpt><trkpt lat="43.7456145" lon="10.9926886"><ele>33.57142857142857</ele><time>2026-04-11T14:15:00.036Z</time></trkpt><trkpt lat="43.745593" lon="10.9927785"><ele>33.42857142857143</ele><time>2026-04-11T14:15:09.012Z</time></trkpt><trkpt lat="43.7455581" lon="10.9928599"><ele>33.285714285714285</ele><time>2026-04-11T14:15:17.012Z</time></trkpt><trkpt lat="43.7455242" lon="10.9929388"><ele>33.14285714285714</ele><time>2026-04-11T14:15:25.012Z</time></trkpt><trkpt lat="43.7454883" lon="10.9930215"><ele>33.0</ele><time>2026-04-11T14:15:34.137Z</time></trkpt><trkpt lat="43.7454637" lon="10.9931067"><ele>33.0</ele><time>2026-04-11T14:15:49.017Z</time></trkpt><trkpt lat="43.7454056" lon="10.9931813"><ele>33.0</ele><time>2026-04-11T14:15:57.128Z</time></trkpt><trkpt lat="43.7453507" lon="10.9932401"><ele>33.0</ele><time>2026-04-11T14:16:06.012Z</time></trkpt><trkpt lat="43.7452914" lon="10.9932898"><ele>33.0</ele><time>2026-04-11T14:16:15.026Z</time></trkpt><trkpt lat="43.7452386" lon="10.9933485"><ele>33.0</ele><time>2026-04-11T14:16:23.012Z</time></trkpt><trkpt lat="43.7451818" lon="10.9933999"><ele>33.0</ele><time>2026-04-11T14:16:30.987Z</time></trkpt><trkpt lat="43.7451242" lon="10.9934466"><ele>33.0</ele><time>2026-04-11T14:16:38.134Z</time></trkpt><trkpt lat="43.7450726" lon="10.9935033"><ele>32.57142857142857</ele><time>2026-04-11T14:16:45.134Z</time></trkpt><trkpt lat="43.7450161" lon="10.9935451"><ele>32.142857142857146</ele><time>2026-04-11T14:16:52.012Z</time></trkpt><trkpt lat="43.7449582" lon="10.9935869"><ele>31.714285714285715</ele><time>2026-04-11T14:16:59.018Z</time></trkpt><trkpt lat="43.7449011" lon="10.9936447"><ele>31.285714285714285</ele><time>2026-04-11T14:17:06.012Z</time></trkpt><trkpt lat="43.7448492" lon="10.9937041"><ele>30.857142857142854</ele><time>2026-04-11T14:17:14.072Z</time></trkpt><trkpt lat="43.7447944" lon="10.99375"><ele>30.42857142857143</ele><time>2026-04-11T14:17:21.012Z</time></trkpt><trkpt lat="43.7447324" lon="10.9937991"><ele>30.0</ele><time>2026-04-11T14:17:28.891Z</time></trkpt><trkpt lat="43.7446821" lon="10.993856"><ele>30.0</ele><time>2026-04-11T14:17:37.012Z</time></trkpt><trkpt lat="43.7446263" lon="10.9939095"><ele>30.0</ele><time>2026-04-11T14:17:44.915Z</time></trkpt><trkpt lat="43.7445721" lon="10.9939663"><ele>30.0</ele><time>2026-04-11T14:17:54.118Z</time></trkpt><trkpt lat="43.744517" lon="10.9940142"><ele>30.0</ele><time>2026-04-11T14:18:03.012Z</time></trkpt><trkpt lat="43.7444658" lon="10.9940701"><ele>30.0</ele><time>2026-04-11T14:18:14.131Z</time></trkpt><trkpt lat="43.7444027" lon="10.994102"><ele>30.0</ele><time>2026-04-11T14:18:22.112Z</time></trkpt><trkpt lat="43.7443532" lon="10.9941683"><ele>30.0</ele><time>2026-04-11T14:18:30.097Z</time></trkpt><trkpt lat="43.7443095" lon="10.9942328"><ele>29.857142857142858</ele><time>2026-04-11T14:18:38.012Z</time></trkpt><trkpt lat="43.7442566" lon="10.9942809"><ele>29.714285714285715</ele><time>2026-04-11T14:18:46.012Z</time></trkpt><trkpt lat="43.7441967" lon="10.994333"><ele>29.571428571428573</ele><time>2026-04-11T14:18:55.012Z</time></trkpt><trkpt lat="43.7441361" lon="10.9943866"><ele>29.42857142857143</ele><time>2026-04-11T14:19:03.102Z</time></trkpt><trkpt lat="43.7440855" lon="10.9944486"><ele>29.285714285714285</ele><time>2026-04-11T14:19:10.012Z</time></trkpt><trkpt lat="43.7440214" lon="10.9944972"><ele>29.142857142857146</ele><time>2026-04-11T14:19:18.012Z</time></trkpt><trkpt lat="43.7439646" lon="10.9945428"><ele>29.000000000000004</ele><time>2026-04-11T14:19:25.014Z</time></trkpt><trkpt lat="43.7439087" lon="10.9945968"><ele>29.000000000000004</ele><time>2026-04-11T14:19:32.012Z</time></trkpt><trkpt lat="43.7438471" lon="10.9946494"><ele>29.0</ele><time>2026-04-11T14:19:40.384Z</time></trkpt><trkpt lat="43.7437954" lon="10.994705"><ele>29.000000000000004</ele><time>2026-04-11T14:19:47.012Z</time></trkpt><trkpt lat="43.7437386" lon="10.9947598"><ele>29.000000000000004</ele><time>2026-04-11T14:19:55.012Z</time></trkpt><trkpt lat="43.7436833" lon="10.994816"><ele>29.0</ele><time>2026-04-11T14:20:02.028Z</time></trkpt><trkpt lat="43.7436239" lon="10.994869"><ele>29.000000000000004</ele><time>2026-04-11T14:20:09.927Z</time></trkpt><trkpt lat="43.7435961" lon="10.994963"><ele>29.000000000000004</ele><time>2026-04-11T14:20:22.012Z</time></trkpt><trkpt lat="43.7435337" lon="10.9949996"><ele>28.85714285714286</ele><time>2026-04-11T14:20:36.028Z</time></trkpt><trkpt lat="43.7434721" lon="10.9950405"><ele>28.714285714285715</ele><time>2026-04-11T14:20:43.098Z</time></trkpt><trkpt lat="43.7434103" lon="10.9950792"><ele>28.571428571428573</ele><time>2026-04-11T14:20:52.091Z</time></trkpt><trkpt lat="43.7433558" lon="10.9951245"><ele>28.42857142857143</ele><time>2026-04-11T14:21:04.012Z</time></trkpt><trkpt lat="43.7433021" lon="10.9951703"><ele>28.285714285714285</ele><time>2026-04-11T14:21:11.097Z</time></trkpt><trkpt lat="43.7432536" lon="10.9952262"><ele>28.142857142857142</ele><time>2026-04-11T14:21:19.097Z</time></trkpt><trkpt lat="43.7432187" lon="10.9952997"><ele>28.0</ele><time>2026-04-11T14:21:30.012Z</time></trkpt><trkpt lat="43.743148" lon="10.9953515"><ele>28.0</ele><time>2026-04-11T14:21:48.012Z</time></trkpt><trkpt lat="43.743084" lon="10.9953734"><ele>28.0</ele><time>2026-04-11T14:21:55.012Z</time></trkpt><trkpt lat="43.7430253" lon="10.9954167"><ele>28.0</ele><time>2026-04-11T14:22:02.012Z</time></trkpt><trkpt lat="43.742976" lon="10.9954798"><ele>28.0</ele><time>2026-04-11T14:22:10.012Z</time></trkpt><trkpt lat="43.7429208" lon="10.9955351"><ele>28.0</ele><time>2026-04-11T14:22:16.995Z</time></trkpt><trkpt lat="43.7428675" lon="10.9955939"><ele>28.0</ele><time>2026-04-11T14:22:25.027Z</time></trkpt><trkpt lat="43.7428154" lon="10.9956485"><ele>28.0</ele><time>2026-04-11T14:22:32.084Z</time></trkpt><trkpt lat="43.7427559" lon="10.9956951"><ele>28.285714285714285</ele><time>2026-04-11T14:22:39.097Z</time></trkpt><trkpt lat="43.742704" lon="10.9957522"><ele>28.57142857142857</ele><time>2026-04-11T14:22:47.1Z</time></trkpt><trkpt lat="43.7426478" lon="10.9957996"><ele>28.857142857142858</ele><time>2026-04-11T14:22:55.012Z</time></trkpt><trkpt lat="43.7425911" lon="10.9958562"><ele>29.142857142857142</ele><time>2026-04-11T14:23:03.012Z</time></trkpt><trkpt lat="43.7425324" lon="10.9958901"><ele>29.428571428571427</ele><time>2026-04-11T14:23:12.996Z</time></trkpt><trkpt lat="43.7424715" lon="10.9959218"><ele>29.714285714285715</ele><time>2026-04-11T14:23:22.012Z</time></trkpt><trkpt lat="43.7424139" lon="10.9959618"><ele>30.0</ele><time>2026-04-11T14:23:30.992Z</time></trkpt><trkpt lat="43.7423642" lon="10.9960174"><ele>30.0</ele><time>2026-04-11T14:23:39.012Z</time></trkpt><trkpt lat="43.7423068" lon="10.9960726"><ele>30.0</ele><time>2026-04-11T14:23:47.012Z</time></trkpt><trkpt lat="43.7422501" lon="10.9961214"><ele>30.0</ele><time>2026-04-11T14:23:56.012Z</time></trkpt><trkpt lat="43.7421962" lon="10.9961672"><ele>30.0</ele><time>2026-04-11T14:24:04.672Z</time></trkpt><trkpt lat="43.7421364" lon="10.9962104"><ele>30.0</ele><time>2026-04-11T14:24:13.012Z</time></trkpt><trkpt lat="43.742081" lon="10.9962632"><ele>30.0</ele><time>2026-04-11T14:24:21.012Z</time></trkpt><trkpt lat="43.7420277" lon="10.9963142"><ele>30.0</ele><time>2026-04-11T14:24:29.012Z</time></trkpt><trkpt lat="43.7419666" lon="10.9963638"><ele>30.0</ele><time>2026-04-11T14:24:37.012Z</time></trkpt><trkpt lat="43.7419297" lon="10.9964435"><ele>30.0</ele><time>2026-04-11T14:24:45.016Z</time></trkpt><trkpt lat="43.7418716" lon="10.9965055"><ele>30.0</ele><time>2026-04-11T14:25:00.012Z</time></trkpt><trkpt lat="43.7418159" lon="10.9965607"><ele>30.0</ele><time>2026-04-11T14:25:08.012Z</time></trkpt><trkpt lat="43.7417667" lon="10.9966204"><ele>30.0</ele><time>2026-04-11T14:25:17.025Z</time></trkpt><trkpt lat="43.7417156" lon="10.9966737"><ele>30.0</ele><time>2026-04-11T14:25:25.012Z</time></trkpt><trkpt lat="43.7416603" lon="10.9967287"><ele>30.0</ele><time>2026-04-11T14:25:34.012Z</time></trkpt><trkpt lat="43.7416021" lon="10.9967772"><ele>30.285714285714285</ele><time>2026-04-11T14:25:41.949Z</time></trkpt><trkpt lat="43.7415556" lon="10.9968438"><ele>30.57142857142857</ele><time>2026-04-11T14:25:51.012Z</time></trkpt><trkpt lat="43.741494" lon="10.9968865"><ele>30.857142857142854</ele><time>2026-04-11T14:25:59.376Z</time></trkpt><trkpt lat="43.7414421" lon="10.9969366"><ele>31.142857142857142</ele><time>2026-04-11T14:26:07.012Z</time></trkpt><trkpt lat="43.7413886" lon="10.996985"><ele>31.428571428571423</ele><time>2026-04-11T14:26:15.012Z</time></trkpt><trkpt lat="43.7413264" lon="10.9970423"><ele>31.71428571428571</ele><time>2026-04-11T14:26:23.023Z</time></trkpt><trkpt lat="43.7412813" lon="10.9971133"><ele>32.0</ele><time>2026-04-11T14:26:31.095Z</time></trkpt><trkpt lat="43.7412312" lon="10.9971713"><ele>32.0</ele><time>2026-04-11T14:26:39.705Z</time></trkpt><trkpt lat="43.7411692" lon="10.9972093"><ele>31.999999999999996</ele><time>2026-04-11T14:26:47.013Z</time></trkpt><trkpt lat="43.7411178" lon="10.9972638"><ele>32.0</ele><time>2026-04-11T14:26:54.013Z</time></trkpt><trkpt lat="43.7410603" lon="10.9973206"><ele>32.0</ele><time>2026-04-11T14:27:01.013Z</time></trkpt><trkpt lat="43.741004" lon="10.9973655"><ele>31.999999999999996</ele><time>2026-04-11T14:27:09.051Z</time></trkpt><trkpt lat="43.7409506" lon="10.9974182"><ele>32.0</ele><time>2026-04-11T14:27:16.075Z</time></trkpt><trkpt lat="43.740892" lon="10.9974729"><ele>32.0</ele><time>2026-04-11T14:27:24.013Z</time></trkpt><trkpt lat="43.7408467" lon="10.99754"><ele>32.57142857142857</ele><time>2026-04-11T14:27:32.013Z</time></trkpt><trkpt lat="43.7407851" lon="10.9975874"><ele>33.14285714285714</ele><time>2026-04-11T14:27:40.013Z</time></trkpt><trkpt lat="43.7407413" lon="10.997656"><ele>33.714285714285715</ele><time>2026-04-11T14:27:51.1Z</time></trkpt><trkpt lat="43.7406786" lon="10.9977044"><ele>34.285714285714285</ele><time>2026-04-11T14:28:00.013Z</time></trkpt><trkpt lat="43.7406254" lon="10.9977609"><ele>34.85714285714286</ele><time>2026-04-11T14:28:08.017Z</time></trkpt><trkpt lat="43.7405717" lon="10.9978211"><ele>35.42857142857143</ele><time>2026-04-11T14:28:16.107Z</time></trkpt><trkpt lat="43.740514" lon="10.9978656"><ele>36.0</ele><time>2026-04-11T14:28:23.099Z</time></trkpt><trkpt lat="43.7404537" lon="10.9979241"><ele>36.00000000000001</ele><time>2026-04-11T14:28:35.625Z</time></trkpt><trkpt lat="43.7403965" lon="10.9979756"><ele>36.0</ele><time>2026-04-11T14:28:42.027Z</time></trkpt><trkpt lat="43.7403522" lon="10.9980435"><ele>36.0</ele><time>2026-04-11T14:28:48.013Z</time></trkpt><trkpt lat="43.7403013" lon="10.9981053"><ele>36.0</ele><time>2026-04-11T14:28:55.026Z</time></trkpt><trkpt lat="43.7402547" lon="10.9981648"><ele>36.0</ele><time>2026-04-11T14:29:28.034Z</time></trkpt><trkpt lat="43.7401863" lon="10.9981883"><ele>36.00000000000001</ele><time>2026-04-11T14:29:36.013Z</time></trkpt><trkpt lat="43.7401055" lon="10.9981803"><ele>36.0</ele><time>2026-04-11T14:29:56.013Z</time></trkpt><trkpt lat="43.7401618" lon="10.9981364"><ele>36.00000000000001</ele><time>2026-04-11T14:33:49.013Z</time></trkpt><trkpt lat="43.7402267" lon="10.9981064"><ele>36.0</ele><time>2026-04-11T14:34:00.113Z</time></trkpt><trkpt lat="43.7402891" lon="10.9980913"><ele>36.0</ele><time>2026-04-11T14:34:11.013Z</time></trkpt><trkpt lat="43.7403509" lon="10.9980618"><ele>36.0</ele><time>2026-04-11T14:34:20.013Z</time></trkpt><trkpt lat="43.7404026" lon="10.9979981"><ele>36.0</ele><time>2026-04-11T14:34:28.732Z</time></trkpt><trkpt lat="43.7404553" lon="10.9979367"><ele>36.00000000000001</ele><time>2026-04-11T14:34:37.124Z</time></trkpt><trkpt lat="43.7405057" lon="10.9978756"><ele>36.0</ele><time>2026-04-11T14:34:44.945Z</time></trkpt><trkpt lat="43.7405256" lon="10.9977926"><ele>36.00000000000001</ele><time>2026-04-11T14:34:54.013Z</time></trkpt><trkpt lat="43.7405804" lon="10.9977425"><ele>36.0</ele><time>2026-04-11T14:35:01.99Z</time></trkpt><trkpt lat="43.7406438" lon="10.9977043"><ele>36.0</ele><time>2026-04-11T14:35:11.101Z</time></trkpt><trkpt lat="43.740705" lon="10.9976765"><ele>36.0</ele><time>2026-04-11T14:35:19.026Z</time></trkpt><trkpt lat="43.7407602" lon="10.9976242"><ele>36.0</ele><time>2026-04-11T14:35:27.566Z</time></trkpt><trkpt lat="43.7408188" lon="10.9975681"><ele>36.00000000000001</ele><time>2026-04-11T14:35:35.013Z</time></trkpt><trkpt lat="43.7408696" lon="10.9975054"><ele>36.0</ele><time>2026-04-11T14:35:41.951Z</time></trkpt><trkpt lat="43.7409233" lon="10.9974497"><ele>35.42857142857143</ele><time>2026-04-11T14:35:49.013Z</time></trkpt><trkpt lat="43.7409867" lon="10.997399"><ele>34.85714285714286</ele><time>2026-04-11T14:35:57.932Z</time></trkpt><trkpt lat="43.7410384" lon="10.9973375"><ele>34.285714285714285</ele><time>2026-04-11T14:36:06.126Z</time></trkpt><trkpt lat="43.7410979" lon="10.9972913"><ele>33.714285714285715</ele><time>2026-04-11T14:36:14.027Z</time></trkpt><trkpt lat="43.7411522" lon="10.99724"><ele>33.14285714285714</ele><time>2026-04-11T14:36:21.335Z</time></trkpt><trkpt lat="43.7412086" lon="10.9971804"><ele>32.57142857142857</ele><time>2026-04-11T14:36:28.027Z</time></trkpt><trkpt lat="43.7412561" lon="10.9971232"><ele>32.0</ele><time>2026-04-11T14:36:35.017Z</time></trkpt><trkpt lat="43.7413112" lon="10.9970749"><ele>32.0</ele><time>2026-04-11T14:36:42.013Z</time></trkpt><trkpt lat="43.7413782" lon="10.9970285"><ele>31.999999999999996</ele><time>2026-04-11T14:36:49.957Z</time></trkpt><trkpt lat="43.7414308" lon="10.9969786"><ele>32.0</ele><time>2026-04-11T14:36:57.05Z</time></trkpt><trkpt lat="43.7414822" lon="10.9969207"><ele>32.0</ele><time>2026-04-11T14:37:05.013Z</time></trkpt><trkpt lat="43.7415348" lon="10.9968671"><ele>31.999999999999996</ele><time>2026-04-11T14:37:11.96Z</time></trkpt><trkpt lat="43.7415896" lon="10.9968111"><ele>32.0</ele><time>2026-04-11T14:37:20.023Z</time></trkpt><trkpt lat="43.7416435" lon="10.9967492"><ele>32.0</ele><time>2026-04-11T14:37:35.013Z</time></trkpt><trkpt lat="43.7417" lon="10.9967009"><ele>31.857142857142854</ele><time>2026-04-11T14:37:42.013Z</time></trkpt><trkpt lat="43.7417552" lon="10.996654"><ele>31.71428571428571</ele><time>2026-04-11T14:37:49.905Z</time></trkpt><trkpt lat="43.7418108" lon="10.9966076"><ele>31.57142857142857</ele><time>2026-04-11T14:37:58.079Z</time></trkpt><trkpt lat="43.7418638" lon="10.996548"><ele>31.42857142857143</ele><time>2026-04-11T14:38:06.031Z</time></trkpt><trkpt lat="43.7419192" lon="10.9964981"><ele>31.28571428571429</ele><time>2026-04-11T14:38:12.971Z</time></trkpt><trkpt lat="43.7419784" lon="10.9964508"><ele>31.142857142857146</ele><time>2026-04-11T14:38:21.108Z</time></trkpt><trkpt lat="43.742033" lon="10.9964069"><ele>31.0</ele><time>2026-04-11T14:38:30.047Z</time></trkpt><trkpt lat="43.7420913" lon="10.9963516"><ele>30.857142857142858</ele><time>2026-04-11T14:38:47.049Z</time></trkpt><trkpt lat="43.7421447" lon="10.9962954"><ele>30.714285714285715</ele><time>2026-04-11T14:38:55.047Z</time></trkpt><trkpt lat="43.7422008" lon="10.9962393"><ele>30.571428571428573</ele><time>2026-04-11T14:39:04.04Z</time></trkpt><trkpt lat="43.7422607" lon="10.9961928"><ele>30.42857142857143</ele><time>2026-04-11T14:39:13.044Z</time></trkpt><trkpt lat="43.7423188" lon="10.9961364"><ele>30.285714285714285</ele><time>2026-04-11T14:39:21.043Z</time></trkpt><trkpt lat="43.7423693" lon="10.9960806"><ele>30.142857142857146</ele><time>2026-04-11T14:39:29.106Z</time></trkpt><trkpt lat="43.7424203" lon="10.9960271"><ele>30.0</ele><time>2026-04-11T14:39:38.041Z</time></trkpt><trkpt lat="43.7424667" lon="10.9959587"><ele>30.0</ele><time>2026-04-11T14:39:58.04Z</time></trkpt><trkpt lat="43.7425282" lon="10.9959108"><ele>30.0</ele><time>2026-04-11T14:40:07.043Z</time></trkpt><trkpt lat="43.7425863" lon="10.9958691"><ele>30.0</ele><time>2026-04-11T14:40:16.022Z</time></trkpt><trkpt lat="43.7426451" lon="10.9958303"><ele>30.0</ele><time>2026-04-11T14:40:25.042Z</time></trkpt><trkpt lat="43.7427002" lon="10.9957795"><ele>30.0</ele><time>2026-04-11T14:40:34.042Z</time></trkpt><trkpt lat="43.7427523" lon="10.9957256"><ele>30.0</ele><time>2026-04-11T14:40:42.04Z</time></trkpt><trkpt lat="43.7428054" lon="10.9956606"><ele>30.0</ele><time>2026-04-11T14:40:50.049Z</time></trkpt><trkpt lat="43.742864" lon="10.9956139"><ele>29.714285714285715</ele><time>2026-04-11T14:40:58.041Z</time></trkpt><trkpt lat="43.742893" lon="10.9955307"><ele>29.428571428571427</ele><time>2026-04-11T14:41:10.041Z</time></trkpt><trkpt lat="43.742954" lon="10.9955036"><ele>29.142857142857142</ele><time>2026-04-11T14:41:18.106Z</time></trkpt><trkpt lat="43.7430163" lon="10.9954719"><ele>28.857142857142858</ele><time>2026-04-11T14:41:26.997Z</time></trkpt><trkpt lat="43.7430677" lon="10.995416"><ele>28.57142857142857</ele><time>2026-04-11T14:41:36.046Z</time></trkpt><trkpt lat="43.7431206" lon="10.9953665"><ele>28.285714285714285</ele><time>2026-04-11T14:41:45.059Z</time></trkpt><trkpt lat="43.7431748" lon="10.9953076"><ele>28.0</ele><time>2026-04-11T14:41:54.04Z</time></trkpt><trkpt lat="43.7432304" lon="10.9952604"><ele>28.0</ele><time>2026-04-11T14:42:03.04Z</time></trkpt><trkpt lat="43.743291" lon="10.995209"><ele>28.0</ele><time>2026-04-11T14:42:12.106Z</time></trkpt><trkpt lat="43.7433461" lon="10.9951608"><ele>28.0</ele><time>2026-04-11T14:42:20.968Z</time></trkpt><trkpt lat="43.7434089" lon="10.9950833"><ele>28.0</ele><time>2026-04-11T14:48:31.038Z</time></trkpt><trkpt lat="43.7434629" lon="10.995031"><ele>28.0</ele><time>2026-04-11T14:48:44.044Z</time></trkpt><trkpt lat="43.743516" lon="10.9949772"><ele>28.0</ele><time>2026-04-11T14:48:51.038Z</time></trkpt><trkpt lat="43.7435649" lon="10.9949197"><ele>28.0</ele><time>2026-04-11T14:48:58.041Z</time></trkpt><trkpt lat="43.7436142" lon="10.994865"><ele>28.142857142857142</ele><time>2026-04-11T14:49:05.047Z</time></trkpt><trkpt lat="43.7436679" lon="10.9948103"><ele>28.285714285714285</ele><time>2026-04-11T14:49:18.049Z</time></trkpt><trkpt lat="43.7437255" lon="10.9947577"><ele>28.42857142857143</ele><time>2026-04-11T14:49:25.047Z</time></trkpt><trkpt lat="43.7437804" lon="10.9947057"><ele>28.571428571428573</ele><time>2026-04-11T14:49:33.04Z</time></trkpt><trkpt lat="43.7438408" lon="10.9946555"><ele>28.714285714285715</ele><time>2026-04-11T14:49:41.041Z</time></trkpt><trkpt lat="43.7439014" lon="10.9945936"><ele>28.85714285714286</ele><time>2026-04-11T14:49:57.041Z</time></trkpt><trkpt lat="43.7439596" lon="10.9945566"><ele>29.000000000000004</ele><time>2026-04-11T14:50:04.047Z</time></trkpt><trkpt lat="43.7440141" lon="10.9945109"><ele>29.000000000000004</ele><time>2026-04-11T14:50:11.114Z</time></trkpt><trkpt lat="43.7440684" lon="10.9944596"><ele>29.0</ele><time>2026-04-11T14:50:18.114Z</time></trkpt><trkpt lat="43.744124" lon="10.9944066"><ele>29.000000000000004</ele><time>2026-04-11T14:50:25.118Z</time></trkpt><trkpt lat="43.7441798" lon="10.9943592"><ele>29.000000000000004</ele><time>2026-04-11T14:50:32.048Z</time></trkpt><trkpt lat="43.7442242" lon="10.9942947"><ele>29.0</ele><time>2026-04-11T14:50:39.106Z</time></trkpt><trkpt lat="43.7442832" lon="10.994246"><ele>29.000000000000004</ele><time>2026-04-11T14:50:46.129Z</time></trkpt><trkpt lat="43.7443436" lon="10.9941942"><ele>29.000000000000004</ele><time>2026-04-11T14:50:53.159Z</time></trkpt><trkpt lat="43.7444044" lon="10.9941566"><ele>29.142857142857146</ele><time>2026-04-11T14:51:01.128Z</time></trkpt><trkpt lat="43.7444642" lon="10.9941051"><ele>29.285714285714285</ele><time>2026-04-11T14:51:08.951Z</time></trkpt><trkpt lat="43.7445208" lon="10.9940383"><ele>29.42857142857143</ele><time>2026-04-11T14:51:15.051Z</time></trkpt><trkpt lat="43.7445752" lon="10.9939881"><ele>29.571428571428573</ele><time>2026-04-11T14:51:21.971Z</time></trkpt><trkpt lat="43.7446278" lon="10.9939338"><ele>29.714285714285715</ele><time>2026-04-11T14:51:28.01Z</time></trkpt><trkpt lat="43.7446847" lon="10.9938915"><ele>29.857142857142858</ele><time>2026-04-11T14:51:38.01Z</time></trkpt><trkpt lat="43.7447296" lon="10.9938269"><ele>30.0</ele><time>2026-04-11T14:51:45.377Z</time></trkpt><trkpt lat="43.7447885" lon="10.9937702"><ele>30.0</ele><time>2026-04-11T14:51:53.045Z</time></trkpt><trkpt lat="43.7448437" lon="10.9937239"><ele>30.0</ele><time>2026-04-11T14:52:00.01Z</time></trkpt><trkpt lat="43.7448981" lon="10.9936784"><ele>30.0</ele><time>2026-04-11T14:52:07.01Z</time></trkpt><trkpt lat="43.7449513" lon="10.9936247"><ele>30.0</ele><time>2026-04-11T14:52:14.131Z</time></trkpt><trkpt lat="43.7450055" lon="10.9935693"><ele>30.0</ele><time>2026-04-11T14:52:21.128Z</time></trkpt><trkpt lat="43.7450604" lon="10.9935099"><ele>30.0</ele><time>2026-04-11T14:52:28.529Z</time></trkpt><trkpt lat="43.7451158" lon="10.993454"><ele>30.0</ele><time>2026-04-11T14:52:35.01Z</time></trkpt><trkpt lat="43.7451743" lon="10.9934083"><ele>30.42857142857143</ele><time>2026-04-11T14:52:41.867Z</time></trkpt><trkpt lat="43.7452326" lon="10.9933612"><ele>30.857142857142854</ele><time>2026-04-11T14:52:49.01Z</time></trkpt><trkpt lat="43.7452885" lon="10.9932957"><ele>31.285714285714285</ele><time>2026-04-11T14:52:56.329Z</time></trkpt><trkpt lat="43.7453473" lon="10.9932433"><ele>31.714285714285715</ele><time>2026-04-11T14:53:04.01Z</time></trkpt><trkpt lat="43.7453994" lon="10.9931874"><ele>32.142857142857146</ele><time>2026-04-11T14:53:11.01Z</time></trkpt><trkpt lat="43.7454491" lon="10.9931036"><ele>32.57142857142857</ele><time>2026-04-11T14:53:22.97Z</time></trkpt><trkpt lat="43.7454927" lon="10.9930399"><ele>33.0</ele><time>2026-04-11T14:53:29.75Z</time></trkpt><trkpt lat="43.7455225" lon="10.9929611"><ele>33.0</ele><time>2026-04-11T14:53:55.01Z</time></trkpt><trkpt lat="43.745559" lon="10.9928868"><ele>33.0</ele><time>2026-04-11T14:54:02.01Z</time></trkpt><trkpt lat="43.7455862" lon="10.9928033"><ele>33.0</ele><time>2026-04-11T14:54:11.116Z</time></trkpt><trkpt lat="43.7456182" lon="10.9927254"><ele>33.0</ele><time>2026-04-11T14:54:19.11Z</time></trkpt><trkpt lat="43.7456311" lon="10.992625"><ele>33.0</ele><time>2026-04-11T14:54:28.848Z</time></trkpt><trkpt lat="43.7456604" lon="10.9925423"><ele>33.0</ele><time>2026-04-11T14:54:37.01Z</time></trkpt><trkpt lat="43.7456736" lon="10.9924553"><ele>33.0</ele><time>2026-04-11T14:54:46.01Z</time></trkpt><trkpt lat="43.745678" lon="10.9923541"><ele>33.14285714285714</ele><time>2026-04-11T14:54:53.01Z</time></trkpt><trkpt lat="43.7456768" lon="10.9922575"><ele>33.285714285714285</ele><time>2026-04-11T14:54:59.919Z</time></trkpt><trkpt lat="43.7456922" lon="10.9921644"><ele>33.42857142857143</ele><time>2026-04-11T14:55:07.01Z</time></trkpt><trkpt lat="43.7457163" lon="10.9920794"><ele>33.57142857142857</ele><time>2026-04-11T14:55:14.01Z</time></trkpt><trkpt lat="43.7457236" lon="10.9919916"><ele>33.714285714285715</ele><time>2026-04-11T14:55:21.01Z</time></trkpt><trkpt lat="43.7457242" lon="10.9919008"><ele>33.857142857142854</ele><time>2026-04-11T14:55:28.01Z</time></trkpt><trkpt lat="43.7457242" lon="10.9918117"><ele>34.0</ele><time>2026-04-11T14:55:34.01Z</time></trkpt><trkpt lat="43.7456966" lon="10.9917257"><ele>33.99999999999999</ele><time>2026-04-11T14:55:41.01Z</time></trkpt><trkpt lat="43.7456406" lon="10.9916772"><ele>34.0</ele><time>2026-04-11T14:55:48.01Z</time></trkpt><trkpt lat="43.7455771" lon="10.9916549"><ele>34.0</ele><time>2026-04-11T14:55:55.018Z</time></trkpt><trkpt lat="43.7455102" lon="10.9916477"><ele>34.0</ele><time>2026-04-11T14:56:01.027Z</time></trkpt><trkpt lat="43.7454395" lon="10.9916466"><ele>34.0</ele><time>2026-04-11T14:56:09.09Z</time></trkpt><trkpt lat="43.7454106" lon="10.9915578"><ele>33.99999999999999</ele><time>2026-04-11T14:56:20.995Z</time></trkpt><trkpt lat="43.7453892" lon="10.9914636"><ele>34.0</ele><time>2026-04-11T14:56:28.01Z</time></trkpt><trkpt lat="43.7454535" lon="10.9914721"><ele>33.99999999999999</ele><time>2026-04-11T14:56:38.125Z</time></trkpt><trkpt lat="43.7455123" lon="10.9915165"><ele>34.0</ele><time>2026-04-11T14:56:45.01Z</time></trkpt><trkpt lat="43.7455767" lon="10.9915263"><ele>34.0</ele><time>2026-04-11T14:56:52.024Z</time></trkpt><trkpt lat="43.7456311" lon="10.9914785"><ele>34.0</ele><time>2026-04-11T14:56:58.915Z</time></trkpt><trkpt lat="43.7456729" lon="10.991406"><ele>34.0</ele><time>2026-04-11T14:57:07.979Z</time></trkpt><trkpt lat="43.7456983" lon="10.9913162"><ele>33.99999999999999</ele><time>2026-04-11T14:57:18.252Z</time></trkpt><trkpt lat="43.7456946" lon="10.9912264"><ele>34.0</ele><time>2026-04-11T14:57:25.01Z</time></trkpt><trkpt lat="43.7456824" lon="10.9911366"><ele>33.99999999999999</ele><time>2026-04-11T14:57:31.117Z</time></trkpt><trkpt lat="43.7456797" lon="10.9910452"><ele>34.0</ele><time>2026-04-11T14:57:37.1Z</time></trkpt><trkpt lat="43.7456641" lon="10.9909517"><ele>34.0</ele><time>2026-04-11T14:57:44.093Z</time></trkpt><trkpt lat="43.7456485" lon="10.9908575"><ele>34.0</ele><time>2026-04-11T14:57:52.245Z</time></trkpt><trkpt lat="43.7456394" lon="10.9907673"><ele>34.0</ele><time>2026-04-11T14:57:59.104Z</time></trkpt><trkpt lat="43.7456281" lon="10.9906802"><ele>33.99999999999999</ele><time>2026-04-11T14:58:08.01Z</time></trkpt><trkpt lat="43.7456161" lon="10.990586"><ele>34.0</ele><time>2026-04-11T14:58:16.01Z</time></trkpt><trkpt lat="43.745595" lon="10.9905023"><ele>33.99999999999999</ele><time>2026-04-11T14:58:23.052Z</time></trkpt><trkpt lat="43.745575" lon="10.9904123"><ele>34.0</ele><time>2026-04-11T14:58:30.125Z</time></trkpt><trkpt lat="43.7455646" lon="10.9903165"><ele>34.0</ele><time>2026-04-11T14:58:38.01Z</time></trkpt><trkpt lat="43.7455433" lon="10.9902167"><ele>34.0</ele><time>2026-04-11T14:58:46.525Z</time></trkpt><trkpt lat="43.7455246" lon="10.9901302"><ele>34.0</ele><time>2026-04-11T14:58:54.098Z</time></trkpt><trkpt lat="43.7455015" lon="10.9900424"><ele>33.99999999999999</ele><time>2026-04-11T14:59:00.067Z</time></trkpt><trkpt lat="43.7454725" lon="10.9899596"><ele>34.0</ele><time>2026-04-11T14:59:09.01Z</time></trkpt><trkpt lat="43.7454432" lon="10.9898705"><ele>33.57142857142857</ele><time>2026-04-11T14:59:18.01Z</time></trkpt><trkpt lat="43.7454231" lon="10.9897847"><ele>33.14285714285714</ele><time>2026-04-11T14:59:26.01Z</time></trkpt><trkpt lat="43.7454028" lon="10.9896931"><ele>32.714285714285715</ele><time>2026-04-11T14:59:34.029Z</time></trkpt><trkpt lat="43.7453707" lon="10.9896153"><ele>32.285714285714285</ele><time>2026-04-11T14:59:40.997Z</time></trkpt><trkpt lat="43.7453501" lon="10.9895196"><ele>31.85714285714286</ele><time>2026-04-11T14:59:49.01Z</time></trkpt><trkpt lat="43.7453248" lon="10.9894242"><ele>31.42857142857143</ele><time>2026-04-11T14:59:56.01Z</time></trkpt><trkpt lat="43.7452938" lon="10.9893384"><ele>31.0</ele><time>2026-04-11T15:00:04.054Z</time></trkpt><trkpt lat="43.7452767" lon="10.9892531"><ele>31.0</ele><time>2026-04-11T15:00:11.102Z</time></trkpt><trkpt lat="43.7452632" lon="10.989166"><ele>31.000000000000004</ele><time>2026-04-11T15:00:18.086Z</time></trkpt><trkpt lat="43.7452402" lon="10.9890771"><ele>31.0</ele><time>2026-04-11T15:00:26.113Z</time></trkpt><trkpt lat="43.7452022" lon="10.9890026"><ele>31.0</ele><time>2026-04-11T15:00:34.093Z</time></trkpt><trkpt lat="43.7451976" lon="10.9889086"><ele>31.000000000000004</ele><time>2026-04-11T15:00:41.01Z</time></trkpt><trkpt lat="43.7451713" lon="10.9888262"><ele>31.0</ele><time>2026-04-11T15:00:47.136Z</time></trkpt><trkpt lat="43.7451389" lon="10.9887461"><ele>31.0</ele><time>2026-04-11T15:00:55.091Z</time></trkpt><trkpt lat="43.7451413" lon="10.9886527"><ele>30.857142857142858</ele><time>2026-04-11T15:01:15.01Z</time></trkpt><trkpt lat="43.7451281" lon="10.988565"><ele>30.714285714285715</ele><time>2026-04-11T15:01:19.916Z</time></trkpt><trkpt lat="43.745106" lon="10.9884712"><ele>30.571428571428573</ele><time>2026-04-11T15:01:28.01Z</time></trkpt><trkpt lat="43.745084" lon="10.9883743"><ele>30.42857142857143</ele><time>2026-04-11T15:01:37.139Z</time></trkpt><trkpt lat="43.7450727" lon="10.988287"><ele>30.285714285714285</ele><time>2026-04-11T15:01:45.047Z</time></trkpt><trkpt lat="43.7450612" lon="10.9881935"><ele>30.142857142857146</ele><time>2026-04-11T15:01:52.046Z</time></trkpt><trkpt lat="43.74506" lon="10.9880976"><ele>30.0</ele><time>2026-04-11T15:02:01.04Z</time></trkpt><trkpt lat="43.7450565" lon="10.9880064"><ele>29.714285714285715</ele><time>2026-04-11T15:02:09.042Z</time></trkpt><trkpt lat="43.7450587" lon="10.9879129"><ele>29.428571428571427</ele><time>2026-04-11T15:02:16.042Z</time></trkpt><trkpt lat="43.7450594" lon="10.9878213"><ele>29.142857142857142</ele><time>2026-04-11T15:02:23.966Z</time></trkpt><trkpt lat="43.7450559" lon="10.9877223"><ele>28.857142857142858</ele><time>2026-04-11T15:02:30.945Z</time></trkpt><trkpt lat="43.7450568" lon="10.9876287"><ele>28.57142857142857</ele><time>2026-04-11T15:02:39.042Z</time></trkpt><trkpt lat="43.7450582" lon="10.9875368"><ele>28.285714285714285</ele><time>2026-04-11T15:02:45.042Z</time></trkpt><trkpt lat="43.7450511" lon="10.9874438"><ele>28.0</ele><time>2026-04-11T15:02:53.044Z</time></trkpt><trkpt lat="43.7450385" lon="10.9873404"><ele>27.857142857142858</ele><time>2026-04-11T15:03:02.04Z</time></trkpt><trkpt lat="43.7450293" lon="10.9872411"><ele>27.714285714285715</ele><time>2026-04-11T15:03:10.041Z</time></trkpt><trkpt lat="43.745014" lon="10.9871531"><ele>27.57142857142857</ele><time>2026-04-11T15:03:17.004Z</time></trkpt><trkpt lat="43.7450247" lon="10.9870667"><ele>27.42857142857143</ele><time>2026-04-11T15:03:24.041Z</time></trkpt><trkpt lat="43.7450153" lon="10.9869676"><ele>27.285714285714285</ele><time>2026-04-11T15:03:32.041Z</time></trkpt><trkpt lat="43.7449884" lon="10.986879"><ele>27.142857142857142</ele><time>2026-04-11T15:03:42.111Z</time></trkpt><trkpt lat="43.7449855" lon="10.9867899"><ele>27.0</ele><time>2026-04-11T15:03:50.045Z</time></trkpt><trkpt lat="43.7450061" lon="10.9867032"><ele>27.142857142857142</ele><time>2026-04-11T15:04:02.102Z</time></trkpt><trkpt lat="43.7450302" lon="10.9866144"><ele>27.285714285714285</ele><time>2026-04-11T15:04:15.102Z</time></trkpt><trkpt lat="43.7450552" lon="10.9865321"><ele>27.42857142857143</ele><time>2026-04-11T15:04:22.097Z</time></trkpt><trkpt lat="43.7450657" lon="10.9864397"><ele>27.57142857142857</ele><time>2026-04-11T15:04:32.04Z</time></trkpt><trkpt lat="43.7450688" lon="10.9863453"><ele>27.714285714285715</ele><time>2026-04-11T15:04:39.038Z</time></trkpt><trkpt lat="43.7450694" lon="10.9862541"><ele>27.857142857142858</ele><time>2026-04-11T15:04:47.087Z</time></trkpt><trkpt lat="43.7450706" lon="10.9861662"><ele>28.0</ele><time>2026-04-11T15:04:56.046Z</time></trkpt><trkpt lat="43.7450739" lon="10.9860743"><ele>28.000000000000004</ele><time>2026-04-11T15:05:04.048Z</time></trkpt><trkpt lat="43.7450755" lon="10.9859747"><ele>28.0</ele><time>2026-04-11T15:05:12.039Z</time></trkpt><trkpt lat="43.7450734" lon="10.9858816"><ele>28.0</ele><time>2026-04-11T15:05:19.041Z</time></trkpt><trkpt lat="43.74508" lon="10.9857168"><ele>28.0</ele><time>2026-04-11T15:06:00.04Z</time></trkpt><trkpt lat="43.7450841" lon="10.9856272"><ele>28.000000000000004</ele><time>2026-04-11T15:06:07.954Z</time></trkpt><trkpt lat="43.7450853" lon="10.9855337"><ele>28.0</ele><time>2026-04-11T15:06:15.041Z</time></trkpt><trkpt lat="43.7450859" lon="10.9854349"><ele>28.142857142857142</ele><time>2026-04-11T15:06:22.041Z</time></trkpt><trkpt lat="43.7450876" lon="10.985343"><ele>28.285714285714285</ele><time>2026-04-11T15:06:30.039Z</time></trkpt><trkpt lat="43.7450889" lon="10.9852463"><ele>28.42857142857143</ele><time>2026-04-11T15:06:38.037Z</time></trkpt><trkpt lat="43.7450956" lon="10.9851555"><ele>28.571428571428573</ele><time>2026-04-11T15:06:46.041Z</time></trkpt><trkpt lat="43.7451095" lon="10.9850626"><ele>28.714285714285715</ele><time>2026-04-11T15:06:52.04Z</time></trkpt><trkpt lat="43.7451119" lon="10.9849716"><ele>28.85714285714286</ele><time>2026-04-11T15:06:59.043Z</time></trkpt><trkpt lat="43.7451115" lon="10.9848824"><ele>29.000000000000004</ele><time>2026-04-11T15:07:07.146Z</time></trkpt><trkpt lat="43.7451135" lon="10.9847858"><ele>29.000000000000004</ele><time>2026-04-11T15:07:14.04Z</time></trkpt><trkpt lat="43.7451161" lon="10.9846921"><ele>29.0</ele><time>2026-04-11T15:07:22.044Z</time></trkpt><trkpt lat="43.7451145" lon="10.984597"><ele>29.000000000000004</ele><time>2026-04-11T15:07:31.042Z</time></trkpt><trkpt lat="43.7451057" lon="10.9845014"><ele>29.000000000000004</ele><time>2026-04-11T15:07:39.11Z</time></trkpt><trkpt lat="43.7450692" lon="10.9844217"><ele>29.0</ele><time>2026-04-11T15:07:46.042Z</time></trkpt><trkpt lat="43.7450168" lon="10.9843693"><ele>29.000000000000004</ele><time>2026-04-11T15:07:53.047Z</time></trkpt><trkpt lat="43.7449805" lon="10.984285"><ele>29.000000000000004</ele><time>2026-04-11T15:08:02.038Z</time></trkpt><trkpt lat="43.7450499" lon="10.9842528"><ele>29.000000000000004</ele><time>2026-04-11T15:08:10.061Z</time></trkpt><trkpt lat="43.745096" lon="10.9841901"><ele>29.0</ele><time>2026-04-11T15:08:18.979Z</time></trkpt><trkpt lat="43.7451164" lon="10.9841058"><ele>29.000000000000004</ele><time>2026-04-11T15:08:26.045Z</time></trkpt><trkpt lat="43.7451234" lon="10.9840191"><ele>29.000000000000004</ele><time>2026-04-11T15:08:32.139Z</time></trkpt><trkpt lat="43.7451099" lon="10.9839269"><ele>29.0</ele><time>2026-04-11T15:08:40.139Z</time></trkpt><trkpt lat="43.7450702" lon="10.9838386"><ele>29.000000000000004</ele><time>2026-04-11T15:08:47.047Z</time></trkpt><trkpt lat="43.7450704" lon="10.9837509"><ele>29.000000000000004</ele><time>2026-04-11T15:08:53.043Z</time></trkpt><trkpt lat="43.7450765" lon="10.9836574"><ele>28.85714285714286</ele><time>2026-04-11T15:09:01.035Z</time></trkpt><trkpt lat="43.7450775" lon="10.983559"><ele>28.714285714285715</ele><time>2026-04-11T15:09:12.138Z</time></trkpt><trkpt lat="43.7450955" lon="10.9834653"><ele>28.571428571428573</ele><time>2026-04-11T15:09:20.045Z</time></trkpt><trkpt lat="43.7451283" lon="10.9833817"><ele>28.42857142857143</ele><time>2026-04-11T15:09:27.043Z</time></trkpt><trkpt lat="43.7451376" lon="10.9832843"><ele>28.285714285714285</ele><time>2026-04-11T15:09:34.178Z</time></trkpt><trkpt lat="43.7451531" lon="10.9831976"><ele>28.142857142857142</ele><time>2026-04-11T15:09:41.042Z</time></trkpt><trkpt lat="43.7451643" lon="10.9831049"><ele>28.0</ele><time>2026-04-11T15:09:48.107Z</time></trkpt><trkpt lat="43.7451773" lon="10.9830004"><ele>28.142857142857142</ele><time>2026-04-11T15:10:05.042Z</time></trkpt><trkpt lat="43.7452491" lon="10.9829655"><ele>28.285714285714285</ele><time>2026-04-11T15:10:11.041Z</time></trkpt><trkpt lat="43.7453162" lon="10.9829497"><ele>28.42857142857143</ele><time>2026-04-11T15:10:19.04Z</time></trkpt><trkpt lat="43.7453833" lon="10.9829184"><ele>28.571428571428573</ele><time>2026-04-11T15:10:26.043Z</time></trkpt><trkpt lat="43.7454517" lon="10.9829234"><ele>28.714285714285715</ele><time>2026-04-11T15:10:32.04Z</time></trkpt><trkpt lat="43.7455203" lon="10.9829017"><ele>28.85714285714286</ele><time>2026-04-11T15:10:41.039Z</time></trkpt><trkpt lat="43.7455891" lon="10.9829123"><ele>29.000000000000004</ele><time>2026-04-11T15:10:49.042Z</time></trkpt><trkpt lat="43.745653" lon="10.9829115"><ele>29.000000000000004</ele><time>2026-04-11T15:10:55.04Z</time></trkpt><trkpt lat="43.7457209" lon="10.9829136"><ele>29.0</ele><time>2026-04-11T15:11:02.038Z</time></trkpt><trkpt lat="43.7457859" lon="10.9829239"><ele>29.000000000000004</ele><time>2026-04-11T15:11:10.039Z</time></trkpt><trkpt lat="43.7458588" lon="10.9829398"><ele>29.000000000000004</ele><time>2026-04-11T15:11:18.042Z</time></trkpt><trkpt lat="43.7458728" lon="10.9830441"><ele>29.0</ele><time>2026-04-11T15:11:47.041Z</time></trkpt><trkpt lat="43.7458186" lon="10.9830926"><ele>29.000000000000004</ele><time>2026-04-11T15:11:51.042Z</time></trkpt><trkpt lat="43.7457707" lon="10.9830183"><ele>29.000000000000004</ele><time>2026-04-11T15:12:01.036Z</time></trkpt><trkpt lat="43.7458281" lon="10.9829674"><ele>29.0</ele><time>2026-04-11T15:12:46.131Z</time></trkpt><trkpt lat="43.7458932" lon="10.9829807"><ele>29.0</ele><time>2026-04-11T15:12:51.808Z</time></trkpt><trkpt lat="43.7459118" lon="10.983072"><ele>29.0</ele><time>2026-04-11T15:13:30.127Z</time></trkpt><trkpt lat="43.7458653" lon="10.9831474"><ele>29.0</ele><time>2026-04-11T15:13:54.039Z</time></trkpt><trkpt lat="43.7457989" lon="10.9831636"><ele>29.0</ele><time>2026-04-11T15:14:02.036Z</time></trkpt><trkpt lat="43.7458035" lon="10.9830312"><ele>29.0</ele><time>2026-04-11T15:14:10.041Z</time></trkpt><trkpt lat="43.7458489" lon="10.9829452"><ele>29.0</ele><time>2026-04-11T15:20:20.038Z</time></trkpt></trkseg></trk></gpx>